aviador You're here:

VMMC Decoded Metar

MACAU in MACAU
Report Time2018-06-18 18:30:00
UTC Time2018-06-18 19:11:55
Flight Rules vfr VFR
Wind220° at 11 kt
W.Decomp.*RWY 16: 5.3 kt HW 9.6 kt RCW
W.Rank220° ranks 20
Current wind is above 220° avg. (7.4)
Visibility9999 m
Phenomena:N/A
Clouds:Few 012 Hf
Scattered 025 Hf
Expected CloudBase > 800 ft AGL from Temp-Dew spread
CeilingNone
Temp28°C (ISA +13)
Dew Point26°C (89% RH)
Heat Index33.6°C
QNH1002 hPa
Density Alt2,333 ft
Elevation20 ft
Report Wrong Elevation
Raw Report
VMMC 181830Z 22011KT 9999 FEW012 SCT025 28/26 Q1002 NOSIG=

Extra information for VMMC:More info

Metar Taf Metar & Taf Last 4 Metars F.Rules Stats Wind Profile Meteogram Temp Stats Airport Information Weather charts Add Link Nearby VenuesMetar ALERT Operation Metar Decoded Social comments